createdAt,value
2023-04-17T00:00:31.236Z,10.45
2023-04-17T00:02:58.265Z,7.90
2023-04-17T00:05:26.941Z,12.77
2023-04-17T00:07:57.382Z,11.63
2023-04-17T00:10:24.496Z,10.75
2023-04-17T00:12:51.416Z,8.85
2023-04-17T00:15:18.335Z,10.07
2023-04-17T00:17:45.395Z,12.57
2023-04-17T00:20:12.514Z,9.77
2023-04-17T00:22:39.821Z,13.27
2023-04-17T00:25:07.579Z,13.32
2023-04-17T00:27:34.691Z,8.88
2023-04-17T00:30:01.696Z,12.68
2023-04-17T00:32:28.722Z,11.25
2023-04-17T00:34:55.961Z,10.50
2023-04-17T00:37:22.933Z,13.52
2023-04-17T00:39:49.876Z,14.35
2023-04-17T00:42:16.797Z,8.30
2023-04-17T00:44:43.781Z,12.27
2023-04-17T00:47:11.287Z,13.55
2023-04-17T00:49:38.351Z,14.85
2023-04-17T00:52:06.037Z,9.95
2023-04-17T00:54:33.599Z,10.35
2023-04-17T00:57:01.605Z,15.40
2023-04-17T00:59:29.341Z,14.55
2023-04-17T01:01:56.438Z,11.30
2023-04-17T01:04:24.154Z,9.50
2023-04-17T01:06:53.425Z,9.45
2023-04-17T01:09:20.368Z,10.52
2023-04-17T01:11:47.278Z,15.60
2023-04-17T01:14:15.448Z,9.98
2023-04-17T01:16:44.735Z,10.38
2023-04-17T01:19:16.029Z,11.23
2023-04-17T01:21:42.992Z,12.60
2023-04-17T01:24:10.958Z,10.13
2023-04-17T01:26:38.905Z,11.00
2023-04-17T01:29:05.815Z,9.23
2023-04-17T01:31:32.979Z,16.35
2023-04-17T01:34:01.290Z,11.27
2023-04-17T01:36:29.287Z,14.38
2023-04-17T01:38:56.287Z,11.32
2023-04-17T01:41:23.411Z,10.38
2023-04-17T01:43:50.430Z,10.88
2023-04-17T01:46:17.549Z,10.65
2023-04-17T01:48:44.691Z,10.07
2023-04-17T01:51:11.835Z,13.98
2023-04-17T01:53:39.963Z,11.30
2023-04-17T01:56:07.830Z,10.65
2023-04-17T01:58:34.800Z,14.88
2023-04-17T02:01:01.805Z,14.32
2023-04-17T02:03:29.021Z,14.32
2023-04-17T02:05:56.082Z,17.85
2023-04-17T02:08:23.311Z,20.60
2023-04-17T02:10:50.449Z,13.40
2023-04-17T02:13:17.367Z,16.45
2023-04-17T02:15:44.583Z,16.60
2023-04-17T02:18:12.130Z,20.13
2023-04-17T02:20:39.794Z,21.45
2023-04-17T02:23:07.078Z,19.83
2023-04-17T02:25:34.398Z,21.95
2023-04-17T02:28:01.391Z,21.90
2023-04-17T02:30:28.957Z,22.30
2023-04-17T02:32:56.421Z,22.67
2023-04-17T02:35:28.199Z,17.88
2023-04-17T02:37:55.450Z,19.40
2023-04-17T02:40:22.505Z,16.13
2023-04-17T02:42:49.552Z,20.52
2023-04-17T02:45:16.558Z,14.25
2023-04-17T02:47:43.525Z,13.63
2023-04-17T02:50:11.236Z,12.48
2023-04-17T02:52:38.254Z,18.70
2023-04-17T02:55:06.999Z,13.00
2023-04-17T02:57:33.987Z,12.00
2023-04-17T03:00:01.868Z,19.45
2023-04-17T03:02:30.748Z,15.10
2023-04-17T03:04:57.825Z,16.05
2023-04-17T03:07:27.588Z,18.88
2023-04-17T03:09:57.692Z,18.75
2023-04-17T03:12:24.915Z,17.75
2023-04-17T03:14:52.528Z,21.17
2023-04-17T03:17:20.975Z,21.95
2023-04-17T03:19:48.070Z,17.77
2023-04-17T03:22:15.134Z,17.20
2023-04-17T03:24:42.172Z,18.67
2023-04-17T03:27:09.267Z,18.83
2023-04-17T03:29:36.519Z,16.27
2023-04-17T03:32:03.913Z,19.27
2023-04-17T03:34:31.620Z,16.67
2023-04-17T03:36:59.200Z,22.23
2023-04-17T03:39:26.856Z,15.40
2023-04-17T03:41:53.932Z,18.23
2023-04-17T03:44:21.216Z,22.40
2023-04-17T03:46:48.159Z,29.92
2023-04-17T03:49:15.089Z,18.60
2023-04-17T03:51:43.082Z,18.27
2023-04-17T03:54:10.268Z,30.05
2023-04-17T03:56:37.446Z,50.25
2023-04-17T03:59:07.183Z,19.42
2023-04-17T04:01:34.307Z,29.05
2023-04-17T04:04:01.956Z,34.10
2023-04-17T04:06:30.120Z,63.22
2023-04-17T04:08:57.346Z,82.53
2023-04-17T04:11:24.278Z,42.55
2023-04-17T04:13:51.441Z,98.95
2023-04-17T04:16:18.488Z,33.15
2023-04-17T04:18:45.582Z,79.88
2023-04-17T04:21:12.822Z,65.63
2023-04-17T04:23:41.545Z,73.95
2023-04-17T04:26:08.609Z,80.95
2023-04-17T04:28:35.630Z,145.50
2023-04-17T04:31:02.919Z,68.53
2023-04-17T04:33:30.339Z,259.58
2023-04-17T04:36:01.278Z,92.53
2023-04-17T04:38:33.063Z,34.10
2023-04-17T04:41:06.547Z,139.90
2023-04-17T04:43:34.088Z,98.13
2023-04-17T04:46:01.053Z,57.70
2023-04-17T04:48:29.142Z,99.15
2023-04-17T04:50:56.484Z,50.63
2023-04-17T04:53:23.540Z,43.90
2023-04-17T04:55:50.508Z,53.75
2023-04-17T04:58:17.418Z,42.28
2023-04-17T05:00:44.752Z,63.42
2023-04-17T05:03:12.940Z,44.97
2023-04-17T05:05:41.207Z,30.13
2023-04-17T05:08:08.182Z,55.88
2023-04-17T05:10:35.143Z,42.75
2023-04-17T05:13:02.092Z,21.83
2023-04-17T05:15:29.303Z,98.28
2023-04-17T05:17:56.408Z,24.70
2023-04-17T05:20:23.670Z,55.05
2023-04-17T05:22:50.866Z,50.83
2023-04-17T05:25:19.777Z,71.45
2023-04-17T05:27:46.794Z,75.60
2023-04-17T05:30:14.714Z,62.25
2023-04-17T05:32:41.911Z,51.25
2023-04-17T05:35:09.366Z,47.10
2023-04-17T05:37:39.189Z,23.02
2023-04-17T05:40:07.269Z,42.00
2023-04-17T05:42:34.948Z,21.98
2023-04-17T05:45:02.071Z,43.15
2023-04-17T05:47:29.211Z,47.38
2023-04-17T05:49:58.286Z,23.33
2023-04-17T05:52:25.803Z,21.08
2023-04-17T05:54:52.783Z,22.38
2023-04-17T05:57:20.130Z,60.63
2023-04-17T05:59:49.453Z,87.88
2023-04-17T06:02:17.506Z,34.20
2023-04-17T06:07:34.917Z,33.42
2023-04-17T06:10:02.698Z,25.08
2023-04-17T06:15:27.597Z,34.28
2023-04-17T06:17:54.654Z,23.50
2023-04-17T06:20:21.680Z,29.08
2023-04-17T06:22:49.703Z,35.80
2023-04-17T06:25:16.752Z,29.67
2023-04-17T06:27:43.778Z,28.73
2023-04-17T06:30:13.508Z,27.98
2023-04-17T06:32:43.932Z,34.47
2023-04-17T06:35:11.670Z,34.22
2023-04-17T06:37:38.771Z,33.25
2023-04-17T06:40:06.666Z,37.15
2023-04-17T06:42:35.651Z,27.92
2023-04-17T06:45:04.869Z,35.20
2023-04-17T06:47:31.954Z,32.72
2023-04-17T06:50:00.066Z,23.25
2023-04-17T06:52:27.098Z,27.80
2023-04-17T06:54:55.238Z,29.08
2023-04-17T06:57:22.725Z,25.00
2023-04-17T07:02:26.600Z,24.83
2023-04-17T07:04:55.242Z,25.35
2023-04-17T07:07:23.235Z,26.30
2023-04-17T07:09:50.700Z,26.75
2023-04-17T07:12:17.671Z,24.23
2023-04-17T07:14:44.839Z,17.85
2023-04-17T07:17:11.920Z,25.52
2023-04-17T07:19:39.149Z,20.65
2023-04-17T07:22:06.065Z,19.27
2023-04-17T07:24:35.225Z,20.88
2023-04-17T07:27:04.259Z,18.85
2023-04-17T07:29:31.416Z,21.10
2023-04-17T07:31:58.861Z,16.27
2023-04-17T07:34:25.952Z,17.27
2023-04-17T07:36:53.510Z,15.23
2023-04-17T07:39:20.601Z,16.48
2023-04-17T07:41:48.216Z,19.17
2023-04-17T07:44:15.184Z,14.98
2023-04-17T07:46:42.392Z,19.08
2023-04-17T07:49:11.998Z,17.40
2023-04-17T07:51:41.360Z,16.15
2023-04-17T07:54:08.709Z,19.23
2023-04-17T07:56:36.898Z,16.00
2023-04-17T07:59:05.043Z,17.25
2023-04-17T08:04:13.778Z,16.33
2023-04-17T08:47:43.188Z,19.13
2023-04-17T08:50:15.840Z,21.35
2023-04-17T08:52:48.055Z,14.48
2023-04-17T08:55:20.494Z,15.80
2023-04-17T08:57:54.431Z,15.98
2023-04-17T09:00:25.984Z,16.67
2023-04-17T09:02:55.185Z,17.10
2023-04-17T09:05:23.939Z,17.60
2023-04-17T09:08:05.545Z,15.23
2023-04-17T09:10:44.863Z,18.48
2023-04-17T09:13:16.230Z,17.80
2023-04-17T09:16:05.788Z,15.35
2023-04-17T09:18:33.954Z,21.35
2023-04-17T09:21:02.078Z,16.75
2023-04-17T09:23:31.252Z,20.65
2023-04-17T09:26:13.714Z,19.20
2023-04-17T09:28:41.463Z,16.67
2023-04-17T09:31:20.575Z,17.17
2023-04-17T09:34:00.439Z,18.40
2023-04-17T09:36:30.778Z,18.67
2023-04-17T09:39:02.364Z,16.55
2023-04-17T09:41:31.887Z,17.60
2023-04-17T09:44:02.183Z,20.35
2023-04-17T09:46:46.185Z,17.75
2023-04-17T09:49:33.944Z,19.17
2023-04-17T09:52:01.144Z,16.10
2023-04-17T09:54:31.573Z,14.75
2023-04-17T09:56:59.358Z,20.02
2023-04-17T09:59:27.004Z,18.88
2023-04-17T10:01:57.185Z,16.40
2023-04-17T10:04:24.757Z,19.77
2023-04-17T10:06:51.779Z,16.65
2023-04-17T10:09:18.660Z,29.23
2023-04-17T10:11:49.749Z,17.67
2023-04-17T10:14:34.329Z,14.18
2023-04-17T10:17:25.464Z,16.33
2023-04-17T10:19:52.762Z,18.35
2023-04-17T10:22:19.657Z,16.30
2023-04-17T10:25:14.870Z,17.92
2023-04-17T10:27:41.785Z,18.40
2023-04-17T10:30:12.826Z,19.77
2023-04-17T10:32:42.604Z,14.93
2023-04-17T10:35:19.738Z,14.75
2023-04-17T10:37:50.356Z,14.38
2023-04-17T10:40:21.507Z,13.02
2023-04-17T10:43:13.186Z,13.98
2023-04-17T10:45:58.561Z,11.70
2023-04-17T10:48:49.752Z,14.02
2023-04-17T10:51:29.160Z,12.70
2023-04-17T10:54:00.828Z,11.60
2023-04-17T10:56:30.918Z,12.68
2023-04-17T10:59:09.002Z,12.98
2023-04-17T11:01:48.264Z,13.60
2023-04-17T11:04:31.067Z,9.10
2023-04-17T11:06:58.611Z,10.40
2023-04-17T11:09:28.264Z,14.77
2023-04-17T11:11:58.930Z,12.02
2023-04-17T11:14:26.873Z,12.27
2023-04-17T11:16:53.894Z,13.35
2023-04-17T11:19:23.190Z,9.32
2023-04-17T11:21:52.175Z,11.15
2023-04-17T11:24:26.880Z,8.65
2023-04-17T11:26:54.619Z,10.43
2023-04-17T11:29:23.119Z,11.05
2023-04-17T11:31:52.449Z,9.13
2023-04-17T11:34:19.919Z,11.13
2023-04-17T11:36:51.275Z,13.30
2023-04-17T11:39:20.081Z,11.15
2023-04-17T11:41:47.323Z,14.70
2023-04-17T11:44:15.747Z,11.00
2023-04-17T11:46:42.802Z,12.73
2023-04-17T11:49:10.443Z,12.90
2023-04-17T11:51:40.623Z,12.23
2023-04-17T11:54:07.678Z,10.63
2023-04-17T11:56:34.769Z,13.30
2023-04-17T11:59:05.920Z,11.60
2023-04-17T12:01:33.311Z,13.93
2023-04-17T12:04:00.499Z,20.40
2023-04-17T12:06:38.411Z,12.57
2023-04-17T12:09:07.125Z,15.73
2023-04-17T12:11:34.549Z,13.45
2023-04-17T12:14:02.430Z,17.00
2023-04-17T12:16:29.804Z,13.95
2023-04-17T12:18:57.402Z,12.43
2023-04-17T12:21:24.670Z,14.50
2023-04-17T12:23:52.255Z,13.60
2023-04-17T12:26:19.407Z,17.45
2023-04-17T12:28:46.446Z,15.82
2023-04-17T12:31:13.677Z,11.68
2023-04-17T12:33:40.632Z,14.70
2023-04-17T12:36:08.136Z,12.10
2023-04-17T12:38:36.106Z,13.25
2023-04-17T12:41:03.261Z,12.38
2023-04-17T12:43:32.606Z,15.88
2023-04-17T12:45:59.675Z,14.85
2023-04-17T12:48:26.721Z,14.32
2023-04-17T12:50:54.575Z,13.52
2023-04-17T12:53:21.807Z,14.77
2023-04-17T12:55:48.800Z,16.33
2023-04-17T12:58:16.417Z,18.25
2023-04-17T13:00:46.273Z,19.40
2023-04-17T13:03:13.682Z,14.65
2023-04-17T13:05:40.911Z,14.07
2023-04-17T13:08:12.519Z,13.60
2023-04-17T13:10:39.491Z,14.40
2023-04-17T13:13:06.463Z,16.63
2023-04-17T13:15:33.474Z,16.15
2023-04-17T13:18:00.884Z,16.05
2023-04-17T13:20:28.325Z,12.57
2023-04-17T13:22:56.861Z,13.68
2023-04-17T13:25:25.305Z,16.10
2023-04-17T13:27:52.532Z,20.83
2023-04-17T13:30:19.416Z,14.80
2023-04-17T13:32:46.387Z,13.95
2023-04-17T13:35:13.617Z,17.15
2023-04-17T13:37:41.455Z,16.02
2023-04-17T13:40:12.261Z,16.08
2023-04-17T13:42:39.293Z,14.57
2023-04-17T13:45:07.474Z,14.57
2023-04-17T13:47:34.600Z,16.10
2023-04-17T13:50:02.001Z,19.58
2023-04-17T13:52:29.204Z,13.40
2023-04-17T13:54:56.253Z,15.48
2023-04-17T13:57:23.260Z,13.32
2023-04-17T13:59:50.280Z,13.00
2023-04-17T14:02:17.385Z,14.15
2023-04-17T14:04:44.496Z,13.25
2023-04-17T14:07:12.975Z,18.92
2023-04-17T14:09:40.154Z,13.07
2023-04-17T14:12:07.186Z,14.57
2023-04-17T14:14:34.211Z,11.82
2023-04-17T14:17:01.405Z,13.45
2023-04-17T14:19:28.459Z,12.32
2023-04-17T14:21:55.564Z,12.80
2023-04-17T14:24:22.488Z,16.10
2023-04-17T14:26:49.421Z,11.02
2023-04-17T14:29:16.327Z,11.02
2023-04-17T14:31:43.403Z,13.93
2023-04-17T14:34:10.527Z,9.35
2023-04-17T14:36:37.642Z,17.48
2023-04-17T14:39:04.622Z,10.52
2023-04-17T14:41:34.195Z,18.15
2023-04-17T14:44:01.434Z,13.02
2023-04-17T14:46:28.522Z,11.77
2023-04-17T14:48:56.575Z,11.23
2023-04-17T14:51:27.267Z,10.52
2023-04-17T14:53:54.533Z,13.93
2023-04-17T14:56:21.907Z,13.80
2023-04-17T14:58:49.235Z,15.50
2023-04-17T15:01:16.493Z,14.27
2023-04-17T15:03:47.500Z,17.83
2023-04-17T15:06:15.867Z,14.13
2023-04-17T15:08:42.867Z,14.63
2023-04-17T15:11:10.007Z,16.45
2023-04-17T15:13:37.016Z,14.77
2023-04-17T15:16:04.243Z,10.85
2023-04-17T15:18:31.252Z,11.38
2023-04-17T15:20:58.515Z,15.48
2023-04-17T15:23:29.747Z,11.77
2023-04-17T15:25:58.024Z,10.70
2023-04-17T15:28:25.543Z,9.88
2023-04-17T15:30:52.651Z,15.02
2023-04-17T15:33:20.008Z,14.57
2023-04-17T15:35:47.224Z,16.55
2023-04-17T15:38:14.188Z,9.88
2023-04-17T15:40:41.094Z,13.38
2023-04-17T15:43:08.239Z,13.95
2023-04-17T15:45:35.239Z,13.10
2023-04-17T15:48:02.293Z,10.57
2023-04-17T15:50:29.505Z,13.20
2023-04-17T15:52:56.583Z,13.90
2023-04-17T15:55:23.716Z,12.63
2023-04-17T15:57:50.769Z,13.95
2023-04-17T16:00:18.218Z,11.77
2023-04-17T16:02:48.031Z,12.43
2023-04-17T16:05:16.053Z,11.57
2023-04-17T16:07:43.156Z,13.95
2023-04-17T16:10:13.839Z,10.95
2023-04-17T16:12:43.273Z,16.05
2023-04-17T16:15:12.193Z,14.13
2023-04-17T16:17:39.186Z,11.32
2023-04-17T16:20:06.936Z,12.70
2023-04-17T16:22:33.864Z,11.55
2023-04-17T16:25:01.946Z,11.43
2023-04-17T16:27:29.911Z,14.00
2023-04-17T16:29:56.855Z,13.35
2023-04-17T16:32:25.111Z,11.00
2023-04-17T16:34:52.731Z,13.25
2023-04-17T16:37:19.783Z,11.20
2023-04-17T16:39:47.339Z,11.48
2023-04-17T16:42:14.653Z,12.75
2023-04-17T16:44:41.766Z,15.50
2023-04-17T16:47:14.161Z,17.17
2023-04-17T16:49:42.225Z,12.45
2023-04-17T16:52:09.783Z,9.93
2023-04-17T16:54:36.694Z,10.85
2023-04-17T16:57:04.035Z,16.13
2023-04-17T16:59:30.982Z,9.90
2023-04-17T17:01:59.136Z,10.18
2023-04-17T17:04:27.968Z,11.63
2023-04-17T17:06:55.007Z,9.52
2023-04-17T17:09:21.988Z,16.27
2023-04-17T17:11:48.953Z,13.68
2023-04-17T17:14:16.275Z,14.77
2023-04-17T17:16:43.401Z,13.50
2023-04-17T17:19:10.909Z,16.83
2023-04-17T17:21:38.025Z,11.77
2023-04-17T17:24:05.436Z,12.57
2023-04-17T17:26:32.608Z,10.60
2023-04-17T17:28:59.645Z,13.43
2023-04-17T17:31:26.868Z,12.82
2023-04-17T17:33:55.486Z,9.63
2023-04-17T17:36:22.404Z,12.05
2023-04-17T17:38:56.172Z,13.25
2023-04-17T17:41:23.996Z,12.43
2023-04-17T17:43:51.301Z,9.30
2023-04-17T17:46:19.661Z,11.07
2023-04-17T17:48:46.742Z,12.52
2023-04-17T17:51:13.850Z,12.30
2023-04-17T17:53:41.451Z,9.82
2023-04-17T17:56:08.461Z,9.68
2023-04-17T17:58:35.732Z,10.07
2023-04-17T18:01:02.866Z,11.23
2023-04-17T18:03:30.481Z,15.02
2023-04-17T18:05:57.929Z,11.43
2023-04-17T18:08:24.837Z,9.55
2023-04-17T18:10:52.029Z,10.75
2023-04-17T18:13:19.202Z,8.98
2023-04-17T18:15:46.272Z,11.63
2023-04-17T18:18:13.255Z,11.07
2023-04-17T18:20:40.493Z,11.38
2023-04-17T18:23:07.527Z,8.48
2023-04-17T18:25:39.138Z,11.07
2023-04-17T18:28:06.803Z,13.27
2023-04-17T18:30:33.735Z,13.90
2023-04-17T18:33:00.972Z,11.00
2023-04-17T18:35:27.930Z,16.38
2023-04-17T18:37:54.905Z,8.90
2023-04-17T18:40:21.846Z,7.97
2023-04-17T18:42:48.845Z,11.02
2023-04-17T18:45:16.114Z,11.10
2023-04-17T18:47:43.493Z,11.75
2023-04-17T18:50:11.492Z,14.80
2023-04-17T18:52:41.026Z,9.98
2023-04-17T18:55:10.173Z,8.27
2023-04-17T18:57:37.753Z,11.63
2023-04-17T19:00:05.596Z,8.73
2023-04-17T19:02:32.836Z,11.95
2023-04-17T19:04:59.942Z,8.52
2023-04-17T19:07:27.084Z,10.90
2023-04-17T19:09:54.130Z,10.32
2023-04-17T19:12:21.064Z,9.40
2023-04-17T19:14:48.067Z,9.52
2023-04-17T19:17:16.109Z,9.45
2023-04-17T19:19:43.010Z,9.88
2023-04-17T19:22:09.956Z,9.23
2023-04-17T19:24:37.116Z,9.93
2023-04-17T19:27:04.220Z,11.90
2023-04-17T19:29:31.441Z,10.95
2023-04-17T19:31:58.478Z,7.65
2023-04-17T19:34:25.699Z,11.13
2023-04-17T19:36:52.837Z,11.57
2023-04-17T19:39:19.996Z,9.23
2023-04-17T19:41:50.991Z,11.02
2023-04-17T19:44:18.498Z,7.65
2023-04-17T19:46:45.550Z,10.10
2023-04-17T19:49:12.934Z,11.98
2023-04-17T19:51:40.054Z,8.95
2023-04-17T19:56:42.485Z,8.45
2023-04-17T19:59:12.678Z,10.25
2023-04-17T20:01:42.155Z,8.18
2023-04-17T20:04:10.955Z,9.93
2023-04-17T20:06:39.754Z,9.35
2023-04-17T20:09:07.048Z,10.10
2023-04-17T20:11:34.697Z,8.52
2023-04-17T20:14:01.705Z,6.00
2023-04-17T20:16:28.704Z,6.05
2023-04-17T20:18:56.809Z,5.43
2023-04-17T20:21:24.195Z,8.73
2023-04-17T20:23:51.648Z,6.78
2023-04-17T20:26:18.605Z,7.53
2023-04-17T20:28:46.012Z,4.78
2023-04-17T20:31:12.994Z,7.85
2023-04-17T20:33:40.130Z,7.28
2023-04-17T20:36:07.176Z,7.63
2023-04-17T20:38:34.280Z,6.38
2023-04-17T20:41:01.332Z,5.68
2023-04-17T20:43:28.239Z,6.55
2023-04-17T20:45:55.239Z,9.32
2023-04-17T20:48:22.439Z,4.70
2023-04-17T20:50:49.546Z,7.30
2023-04-17T20:53:16.638Z,7.97
2023-04-17T20:55:43.686Z,13.52
2023-04-17T20:58:10.813Z,5.85
2023-04-17T21:00:44.523Z,6.40
2023-04-17T21:03:14.574Z,4.38
2023-04-17T21:05:41.633Z,6.57
2023-04-17T21:08:08.557Z,6.28
2023-04-17T21:10:35.520Z,7.47
2023-04-17T21:13:02.499Z,6.43
2023-04-17T21:15:29.446Z,7.05
2023-04-17T21:17:56.396Z,8.98
2023-04-17T21:20:23.655Z,6.97
2023-04-17T21:22:50.551Z,6.45
2023-04-17T21:25:17.571Z,8.13
2023-04-17T21:27:44.667Z,5.25
2023-04-17T21:30:11.814Z,7.13
2023-04-17T21:32:39.411Z,5.63
2023-04-17T21:35:07.002Z,6.75
2023-04-17T21:37:33.925Z,9.40
2023-04-17T21:40:00.850Z,7.72
2023-04-17T21:42:27.765Z,5.15
2023-04-17T21:44:54.708Z,9.57
2023-04-17T21:47:21.701Z,6.35
2023-04-17T21:49:49.178Z,5.38
2023-04-17T21:52:17.205Z,6.93
2023-04-17T21:54:44.143Z,7.22
2023-04-17T21:57:11.052Z,5.13
2023-04-17T21:59:38.050Z,8.73
2023-04-17T22:02:05.014Z,9.75
2023-04-17T22:04:32.146Z,9.13
2023-04-17T22:06:59.251Z,8.65
2023-04-17T22:09:28.456Z,7.25
2023-04-17T22:11:56.668Z,7.47
2023-04-17T22:14:23.662Z,6.53
2023-04-17T22:16:50.662Z,5.93
2023-04-17T22:19:17.625Z,9.35
2023-04-17T22:21:44.641Z,9.45
2023-04-17T22:24:11.889Z,10.23
2023-04-17T22:26:39.019Z,7.40
2023-04-17T22:29:06.138Z,5.25
2023-04-17T22:31:33.125Z,6.28
2023-04-17T22:34:00.140Z,6.43
2023-04-17T22:36:27.585Z,8.48
2023-04-17T22:38:54.820Z,5.95
2023-04-17T22:41:21.799Z,5.57
2023-04-17T22:43:52.036Z,4.65
2023-04-17T22:46:19.060Z,6.35
2023-04-17T22:48:46.273Z,8.57
2023-04-17T22:51:13.543Z,8.27
2023-04-17T22:53:40.559Z,9.13
2023-04-17T22:56:12.431Z,11.02
2023-04-17T22:58:39.428Z,6.55
2023-04-17T23:01:06.676Z,7.28
2023-04-17T23:03:35.192Z,8.27
2023-04-17T23:06:03.151Z,8.15
2023-04-17T23:08:30.628Z,13.60
2023-04-17T23:11:01.753Z,8.07
2023-04-17T23:13:31.850Z,8.98
2023-04-17T23:15:58.950Z,9.35
2023-04-17T23:18:26.237Z,7.72
2023-04-17T23:20:53.201Z,5.82
2023-04-17T23:23:20.280Z,7.75
2023-04-17T23:25:47.363Z,8.43
2023-04-17T23:28:14.722Z,6.45
2023-04-17T23:30:41.721Z,7.93
2023-04-17T23:33:09.761Z,6.93
2023-04-17T23:35:36.747Z,8.35
2023-04-17T23:38:03.769Z,5.13
2023-04-17T23:40:32.850Z,5.45
2023-04-17T23:42:59.828Z,6.72
2023-04-17T23:45:26.777Z,6.18
2023-04-17T23:47:53.892Z,5.07
2023-04-17T23:50:20.971Z,7.55
2023-04-17T23:52:47.973Z,8.07
2023-04-17T23:55:15.057Z,7.40
2023-04-17T23:57:41.978Z,9.30
